Aviation Digital Data Service (ADDS)

Output produced by METARs form (1058 UTC 19 January 2019)
found at http://www.aviationweather.gov/metar/data/
 
EHKD 191025Z AUTO 15006KT 110V180 9999 NCD 01/M01 Q1016 BLU
TAF COR EHKD 190819Z 1910/1922 14007KT 4000 BR NSC 
     BECMG 1910/1912 CAVOK
       
EHDL 191055Z AUTO 13009KT 070V220 9999 OVC150 M00/M03 Q1017 BLU
EHGG 191055Z AUTO 15005KT 100V180 9999 NSC 01/M03 Q1018 R23/310195 NOSIG
TAF EHGG 190500Z 1906/2012 15006KT CAVOK 
     PROB40 2000/2009 4000 BR 
     PROB30 
     TEMPO 2002/2008 0700 BCFG 
     BECMG 2003/2006 09005KT
       
EHEH 191025Z AUTO 12006KT 100V170 9999 OVC140 M00/M03 Q1016 BLU 13004KT CAVOK
TAF EHEH 190514Z 1906/2012 13004KT CAVOK 
     BECMG 1914/1916 10007KT
       
EHGR 191055Z AUTO 13008KT 100V160 9999 OVC180 01/M02 Q1016 BLU
EHLW 191055Z AUTO 15008KT 9999 OVC170 M00/M03 Q1017 BLU
TAF COR EHLW 190818Z 1910/1922 12007KT 8000 NSC
       
EHBK 191055Z AUTO 11007KT 9999 NSC 02/M04 Q1015 NOSIG
TAF EHBK 190500Z 1906/2012 11006KT CAVOK
       
EHRD 191055Z AUTO 13009KT 100V160 9999 NCD 02/M02 Q1015 NOSIG
TAF EHRD 190511Z 1906/2012 12007KT 7000 NSC 
     BECMG 1906/1908 CAVOK 
     BECMG 2003/2006 07007KT
       
EHAM 191055Z 14009KT CAVOK 01/M02 Q1016 NOSIG
TAF EHAM 190511Z 1906/2012 13007KT 2500 BR OVC002 
     BECMG 1906/1908 6000 NSW NSC 
     PROB30 
     TEMPO 1906/1907 1200 BCFG OVC001 
     BECMG 1908/1909 13012KT CAVOK 
     BECMG 1915/1918 10007KT 
     BECMG 2004/2007 07007KT
       
EHVK 191055Z AUTO 11006KT 9999 OVC150 M00/M02 Q1016 BLU
TAF COR EHVK 190819Z 1910/1922 10007KT 8000 NSC
       
EHWO 191055Z AUTO 13005KT 070V180 9999 OVC280 01/M02 Q1015 BLU